ADDS METAR Data INFO
IDs: Format: Raw Decoded Include TAF

Data at: 2017 UTC 18 Jul 2018

KAMW 181953Z AUTO 15009G16KT 10SM CLR 29/16 A3002 RMK AO2 SLP158 T02890161
KAMW 181853Z AUTO 12007KT 10SM FEW049 29/18 A3004 RMK AO2 SLP163 T02940178
KAMW 181753Z AUTO 14008KT 10SM CLR 28/18 A3006 RMK AO2 SLP169 T02830178 10289 20183 57008
KAMW 181653Z AUTO 13007KT 10SM CLR 28/18 A3006 RMK AO2 SLP170 T02780183
KAMW 181553Z AUTO 14007KT 10SM CLR 27/19 A3008 RMK AO2 SLP177 T02720189
KAMW 181453Z AUTO 13004KT 10SM CLR 25/19 A3008 RMK AO2 SLP177 T02500194 58002
KAMW 181353Z AUTO 08004KT 10SM CLR 22/18 A3009 RMK AO2 SLP182 T02220183
KAMW 181253Z AUTO 10003KT 10SM CLR 20/17 A3010 RMK AO2 SLP183 T02000172
KAMW 181153Z AUTO 00000KT 10SM CLR 18/17 A3009 RMK AO2 SLP180 T01830167 10183 20156 55001
KAMW 181053Z AUTO 00000KT 10SM CLR 17/16 A3009 RMK AO2 SLP178 T01720161
KAMW 180953Z AUTO 00000KT 10SM CLR 16/16 A3008 RMK AO2 SLP179 T01610156
KAMW 180853Z AUTO 00000KT 10SM CLR 17/16 A3009 RMK AO2 SLP180 T01720161 50000
KAMW 180753Z AUTO 00000KT 10SM CLR 16/16 A3009 RMK AO2 SLP182 T01610156
KAMW 180653Z AUTO 00000KT 10SM CLR 18/17 A3009 RMK AO2 SLP179 T01780167
KAMW 180553Z AUTO 00000KT 10SM CLR 18/17 A3009 RMK AO2 SLP180 T01830172 10289 20183 403000167 53005
KAMW 180453Z AUTO 00000KT 10SM CLR 20/18 A3008 RMK AO2 SLP177 T02000178
KAMW 180353Z AUTO 00000KT 10SM CLR 20/18 A3008 RMK AO2 SLP176 T02000178
KAMW 180253Z AUTO 00000KT 8SM CLR 22/18 A3007 RMK AO2 SLP175 T02170183 53000
KAMW 180153Z AUTO 00000KT 10SM CLR 23/18 A3006 RMK AO2 SLP172 T02280183
KAMW 180053Z AUTO 00000KT 10SM CLR 27/18 A3007 RMK AO2 SLP172 T02720178
KAMW 172353Z AUTO 00000KT 10SM CLR 29/16 A3007 RMK AO2 SLP174 T02890156 10300 20278 58007
KAMW 172253Z AUTO 19003KT 10SM CLR 29/16 A3008 RMK AO2 SLP177 T02890156
KAMW 172153Z AUTO 14004KT 10SM CLR 29/14 A3009 RMK AO2 SLP180 T02940144
KAMW 172053Z AUTO 14004KT 10SM CLR 29/15 A3009 RMK AO2 SLP181 T02940150 57008
KAMW 171953Z AUTO VRB04KT 10SM CLR 29/16 A3010 RMK AO2 SLP185 T02940156
KAMW 171853Z AUTO VRB05KT 10SM CLR 29/16 A3011 RMK AO2 SLP186 T02890161
KAMW 171753Z AUTO 14004KT 10SM CLR 28/17 A3012 RMK AO2 SLP190 T02830167 10283 20183 50002
KAMW 171653Z AUTO 17005KT 10SM FEW120 27/17 A3013 RMK AO2 SLP194 T02670172
KAMW 171553Z AUTO VRB04KT 10SM CLR 27/16 A3012 RMK AO2 SLP190 T02670161
KAMW 171453Z AUTO 00000KT 10SM CLR 23/17 A3011 RMK AO2 SLP189 T02330172 50008
KAMW 171353Z AUTO 00000KT 10SM SCT080 22/18 A3011 RMK AO2 SLP189 T02220178
KAMW 171253Z AUTO 00000KT 10SM BKN080 21/18 A3010 RMK AO2 SLP183 T02060183
KAMW 171153Z AUTO 00000KT 10SM SCT075 18/18 A3009 RMK AO2 SLP180 T01830178 10189 20167 53003
KAMW 171053Z AUTO 00000KT 10SM CLR 18/17 A3008 RMK AO2 SLP178 T01780167
KAMW 170953Z AUTO 00000KT 10SM CLR 18/17 A3008 RMK AO2 SLP176 T01780167
KAMW 170853Z AUTO 00000KT 10SM CLR 18/17 A3008 RMK AO2 SLP177 T01780167 55001